sensor_id;sensor_type;location;lat;lon;timestamp;pressure;altitude;pressure_sealevel;temperature;humidity
60258;BME280;46115;44.484;11.314;2023-08-06T00:03:43;99303.72;;;18.12;79.58
60258;BME280;46115;44.484;11.314;2023-08-06T00:07:45;99293.84;;;17.94;80.26
60258;BME280;46115;44.484;11.314;2023-08-06T00:11:48;99300.09;;;18.03;78.92
60258;BME280;46115;44.484;11.314;2023-08-06T00:15:52;99298.91;;;18.15;77.84
60258;BME280;46115;44.484;11.314;2023-08-06T00:19:54;99285.16;;;18.10;77.82
60258;BME280;46115;44.484;11.314;2023-08-06T00:23:57;99281.19;;;18.14;77.56
60258;BME280;46115;44.484;11.314;2023-08-06T00:27:59;99275.00;;;18.14;77.42
60258;BME280;46115;44.484;11.314;2023-08-06T00:32:05;99270.31;;;17.98;78.32
60258;BME280;46115;44.484;11.314;2023-08-06T00:36:08;99275.78;;;18.06;77.73
60258;BME280;46115;44.484;11.314;2023-08-06T00:40:10;99263.59;;;17.94;78.25
60258;BME280;46115;44.484;11.314;2023-08-06T00:44:13;99260.16;;;17.84;78.16
60258;BME280;46115;44.484;11.314;2023-08-06T00:48:17;99266.50;;;18.00;77.68
60258;BME280;46115;44.484;11.314;2023-08-06T00:52:20;99264.44;;;17.94;77.91
60258;BME280;46115;44.484;11.314;2023-08-06T00:56:22;99252.06;;;17.93;77.29
60258;BME280;46115;44.484;11.314;2023-08-06T01:00:27;99254.56;;;17.95;77.89
60258;BME280;46115;44.484;11.314;2023-08-06T01:04:30;99250.16;;;17.86;78.33
60258;BME280;46115;44.484;11.314;2023-08-06T01:08:43;99243.50;;;17.90;77.57
60258;BME280;46115;44.484;11.314;2023-08-06T01:12:58;99245.72;;;17.94;77.45
60258;BME280;46115;44.484;11.314;2023-08-06T01:17:04;99246.09;;;17.82;78.03
60258;BME280;46115;44.484;11.314;2023-08-06T01:21:09;99248.63;;;17.83;77.63
60258;BME280;46115;44.484;11.314;2023-08-06T01:25:15;99253.97;;;17.83;77.91
60258;BME280;46115;44.484;11.314;2023-08-06T01:29:23;99249.69;;;17.90;77.72
60258;BME280;46115;44.484;11.314;2023-08-06T01:33:28;99241.97;;;17.69;77.98
60258;BME280;46115;44.484;11.314;2023-08-06T01:37:36;99236.16;;;17.74;78.45
60258;BME280;46115;44.484;11.314;2023-08-06T01:41:39;99235.56;;;17.80;78.06
60258;BME280;46115;44.484;11.314;2023-08-06T01:45:42;99230.81;;;17.92;77.10
60258;BME280;46115;44.484;11.314;2023-08-06T01:49:44;99239.53;;;17.94;77.37
60258;BME280;46115;44.484;11.314;2023-08-06T01:53:48;99235.78;;;17.87;77.40
60258;BME280;46115;44.484;11.314;2023-08-06T01:57:50;99227.78;;;18.04;76.69
60258;BME280;46115;44.484;11.314;2023-08-06T02:01:53;99228.72;;;18.13;76.47
60258;BME280;46115;44.484;11.314;2023-08-06T02:05:55;99225.66;;;18.08;76.00
60258;BME280;46115;44.484;11.314;2023-08-06T02:09:59;99220.97;;;17.92;77.19
60258;BME280;46115;44.484;11.314;2023-08-06T02:14:02;99210.81;;;17.96;77.49
60258;BME280;46115;44.484;11.314;2023-08-06T02:18:04;99214.72;;;18.19;76.29
60258;BME280;46115;44.484;11.314;2023-08-06T02:22:08;99209.50;;;18.00;77.15
60258;BME280;46115;44.484;11.314;2023-08-06T02:26:12;99207.63;;;18.10;76.61
60258;BME280;46115;44.484;11.314;2023-08-06T02:30:14;99199.75;;;17.91;77.78
60258;BME280;46115;44.484;11.314;2023-08-06T02:34:17;99202.88;;;18.04;77.47
60258;BME280;46115;44.484;11.314;2023-08-06T02:38:21;99196.16;;;18.00;77.29
60258;BME280;46115;44.484;11.314;2023-08-06T02:42:25;99190.19;;;17.88;77.81
60258;BME280;46115;44.484;11.314;2023-08-06T02:46:28;99184.59;;;17.99;77.22
60258;BME280;46115;44.484;11.314;2023-08-06T02:50:30;99187.22;;;17.91;77.63
60258;BME280;46115;44.484;11.314;2023-08-06T02:54:33;99178.88;;;18.12;76.18
60258;BME280;46115;44.484;11.314;2023-08-06T02:58:37;99172.94;;;17.83;77.63
60258;BME280;46115;44.484;11.314;2023-08-06T03:02:53;99180.34;;;18.06;76.83
60258;BME280;46115;44.484;11.314;2023-08-06T03:07:07;99171.19;;;18.09;76.64
60258;BME280;46115;44.484;11.314;2023-08-06T03:11:18;99148.69;;;17.66;78.03
60258;BME280;46115;44.484;11.314;2023-08-06T03:15:23;99164.59;;;18.03;77.05
60258;BME280;46115;44.484;11.314;2023-08-06T03:19:27;99174.16;;;18.06;77.04
60258;BME280;46115;44.484;11.314;2023-08-06T03:23:30;99161.59;;;18.24;75.63
60258;BME280;46115;44.484;11.314;2023-08-06T03:27:33;99161.97;;;18.29;75.08
60258;BME280;46115;44.484;11.314;2023-08-06T03:31:37;99146.97;;;18.11;76.18
60258;BME280;46115;44.484;11.314;2023-08-06T03:35:40;99146.50;;;18.15;75.98
60258;BME280;46115;44.484;11.314;2023-08-06T03:39:43;99139.88;;;18.27;75.41
60258;BME280;46115;44.484;11.314;2023-08-06T03:43:45;99145.88;;;18.03;76.48
60258;BME280;46115;44.484;11.314;2023-08-06T03:47:56;99138.25;;;18.08;76.19
60258;BME280;46115;44.484;11.314;2023-08-06T03:51:59;99138.63;;;18.14;75.74
60258;BME280;46115;44.484;11.314;2023-08-06T03:56:01;99138.19;;;18.44;74.86
60258;BME280;46115;44.484;11.314;2023-08-06T04:00:07;99142.13;;;18.14;75.64
60258;BME280;46115;44.484;11.314;2023-08-06T04:04:17;99145.03;;;18.03;76.88
60258;BME280;46115;44.484;11.314;2023-08-06T04:08:20;99138.09;;;18.10;75.63
60258;BME280;46115;44.484;11.314;2023-08-06T04:12:23;99150.16;;;17.96;76.07
60258;BME280;46115;44.484;11.314;2023-08-06T04:16:25;99159.50;;;18.10;75.64
60258;BME280;46115;44.484;11.314;2023-08-06T04:20:29;99162.28;;;18.26;74.67
60258;BME280;46115;44.484;11.314;2023-08-06T04:24:33;99164.84;;;18.36;73.85
60258;BME280;46115;44.484;11.314;2023-08-06T04:28:36;99172.47;;;18.49;73.46
60258;BME280;46115;44.484;11.314;2023-08-06T04:32:40;99164.81;;;18.54;73.52
60258;BME280;46115;44.484;11.314;2023-08-06T04:36:44;99165.78;;;18.45;74.04
60258;BME280;46115;44.484;11.314;2023-08-06T04:40:47;99159.38;;;18.63;72.83
60258;BME280;46115;44.484;11.314;2023-08-06T04:44:50;99156.38;;;18.66;72.74
60258;BME280;46115;44.484;11.314;2023-08-06T04:48:52;99149.19;;;18.67;72.62
60258;BME280;46115;44.484;11.314;2023-08-06T04:52:56;99133.56;;;18.80;72.63
60258;BME280;46115;44.484;11.314;2023-08-06T04:56:58;99144.84;;;19.00;71.54
60258;BME280;46115;44.484;11.314;2023-08-06T05:01:01;99167.00;;;19.52;69.71
60258;BME280;46115;44.484;11.314;2023-08-06T05:05:04;99169.72;;;19.69;68.92
60258;BME280;46115;44.484;11.314;2023-08-06T05:09:08;99159.47;;;19.56;68.36
60258;BME280;46115;44.484;11.314;2023-08-06T05:13:10;99163.91;;;19.98;67.28
60258;BME280;46115;44.484;11.314;2023-08-06T05:17:13;99169.25;;;20.06;66.67
60258;BME280;46115;44.484;11.314;2023-08-06T05:21:15;99171.44;;;20.02;67.22
60258;BME280;46115;44.484;11.314;2023-08-06T05:25:20;99148.31;;;20.17;65.23
60258;BME280;46115;44.484;11.314;2023-08-06T05:29:22;99174.66;;;20.46;66.30
60258;BME280;46115;44.484;11.314;2023-08-06T05:33:25;99179.81;;;20.72;65.14
60258;BME280;46115;44.484;11.314;2023-08-06T05:37:27;99189.88;;;20.86;65.18
60258;BME280;46115;44.484;11.314;2023-08-06T05:41:31;99185.94;;;21.05;64.69
60258;BME280;46115;44.484;11.314;2023-08-06T05:45:33;99185.59;;;21.08;63.61
60258;BME280;46115;44.484;11.314;2023-08-06T05:49:36;99177.34;;;21.10;64.45
60258;BME280;46115;44.484;11.314;2023-08-06T05:53:38;99170.72;;;21.37;63.85
60258;BME280;46115;44.484;11.314;2023-08-06T05:57:42;99179.88;;;21.59;62.55
60258;BME280;46115;44.484;11.314;2023-08-06T06:01:45;99191.34;;;21.75;62.15
60258;BME280;46115;44.484;11.314;2023-08-06T06:05:47;99205.22;;;22.41;62.26
60258;BME280;46115;44.484;11.314;2023-08-06T06:09:50;99215.06;;;22.49;60.24
60258;BME280;46115;44.484;11.314;2023-08-06T06:13:53;99224.06;;;22.41;60.02
60258;BME280;46115;44.484;11.314;2023-08-06T06:17:56;99225.78;;;22.34;58.95
60258;BME280;46115;44.484;11.314;2023-08-06T06:21:59;99230.47;;;22.40;58.91
60258;BME280;46115;44.484;11.314;2023-08-06T06:26:01;99235.00;;;22.39;58.64
60258;BME280;46115;44.484;11.314;2023-08-06T06:30:07;99228.59;;;22.63;57.87
60258;BME280;46115;44.484;11.314;2023-08-06T06:34:10;99229.97;;;22.59;57.92
60258;BME280;46115;44.484;11.314;2023-08-06T06:38:12;99231.38;;;22.93;56.71
60258;BME280;46115;44.484;11.314;2023-08-06T06:42:15;99235.25;;;23.20;56.93
60258;BME280;46115;44.484;11.314;2023-08-06T06:46:22;99236.47;;;23.32;55.97
60258;BME280;46115;44.484;11.314;2023-08-06T06:50:24;99243.56;;;23.62;54.31
60258;BME280;46115;44.484;11.314;2023-08-06T06:54:27;99229.91;;;23.85;55.41
60258;BME280;46115;44.484;11.314;2023-08-06T06:58:29;99239.09;;;24.48;55.30
60258;BME280;46115;44.484;11.314;2023-08-06T07:02:33;99240.03;;;25.46;54.03
60258;BME280;46115;44.484;11.314;2023-08-06T07:06:36;99247.97;;;25.95;53.51
60258;BME280;46115;44.484;11.314;2023-08-06T07:10:41;99246.88;;;25.83;52.70
60258;BME280;46115;44.484;11.314;2023-08-06T07:14:44;99240.44;;;25.91;50.14
60258;BME280;46115;44.484;11.314;2023-08-06T07:18:47;99247.91;;;26.76;50.18
60258;BME280;46115;44.484;11.314;2023-08-06T07:22:50;99254.28;;;27.54;47.17
60258;BME280;46115;44.484;11.314;2023-08-06T07:26:52;99247.72;;;27.11;44.41
60258;BME280;46115;44.484;11.314;2023-08-06T07:30:55;99249.16;;;27.13;45.74
60258;BME280;46115;44.484;11.314;2023-08-06T07:34:59;99244.84;;;28.08;45.98
60258;BME280;46115;44.484;11.314;2023-08-06T07:39:01;99254.38;;;27.86;42.35
60258;BME280;46115;44.484;11.314;2023-08-06T07:43:05;99255.53;;;28.41;41.58
60258;BME280;46115;44.484;11.314;2023-08-06T07:47:07;99259.41;;;29.08;41.10
60258;BME280;46115;44.484;11.314;2023-08-06T07:51:11;99260.75;;;28.49;41.41
60258;BME280;46115;44.484;11.314;2023-08-06T07:55:14;99263.81;;;28.21;40.90
60258;BME280;46115;44.484;11.314;2023-08-06T07:59:16;99268.00;;;28.55;40.61
60258;BME280;46115;44.484;11.314;2023-08-06T08:03:19;99274.34;;;29.49;40.04
60258;BME280;46115;44.484;11.314;2023-08-06T08:07:23;99284.38;;;29.67;39.13
60258;BME280;46115;44.484;11.314;2023-08-06T08:11:26;99285.72;;;29.94;38.50
60258;BME280;46115;44.484;11.314;2023-08-06T08:15:29;99286.75;;;30.30;40.70
60258;BME280;46115;44.484;11.314;2023-08-06T08:19:31;99279.25;;;30.55;39.17
60258;BME280;46115;44.484;11.314;2023-08-06T08:23:35;99286.28;;;31.91;35.83
60258;BME280;46115;44.484;11.314;2023-08-06T08:27:40;99266.63;;;30.84;39.55
60258;BME280;46115;44.484;11.314;2023-08-06T08:31:42;99278.97;;;31.80;37.92
60258;BME280;46115;44.484;11.314;2023-08-06T08:35:45;99269.13;;;31.56;37.75
60258;BME280;46115;44.484;11.314;2023-08-06T08:39:49;99268.88;;;32.09;37.36
60258;BME280;46115;44.484;11.314;2023-08-06T08:43:53;99247.75;;;31.53;35.89
60258;BME280;46115;44.484;11.314;2023-08-06T08:47:56;99262.22;;;31.53;36.10
60258;BME280;46115;44.484;11.314;2023-08-06T08:51:59;99257.34;;;32.64;36.89
60258;BME280;46115;44.484;11.314;2023-08-06T08:56:05;99256.91;;;32.39;36.99
60258;BME280;46115;44.484;11.314;2023-08-06T09:00:08;99267.69;;;32.45;34.10
60258;BME280;46115;44.484;11.314;2023-08-06T09:04:12;99264.59;;;33.04;34.05
60258;BME280;46115;44.484;11.314;2023-08-06T09:08:18;99254.94;;;32.68;33.12
60258;BME280;46115;44.484;11.314;2023-08-06T09:12:22;99254.63;;;32.81;33.83
60258;BME280;46115;44.484;11.314;2023-08-06T09:16:25;99259.59;;;32.10;34.34
60258;BME280;46115;44.484;11.314;2023-08-06T09:20:27;99264.00;;;32.11;34.91
60258;BME280;46115;44.484;11.314;2023-08-06T09:24:30;99261.56;;;31.34;35.88
60258;BME280;46115;44.484;11.314;2023-08-06T09:28:40;99274.22;;;31.76;32.64
60258;BME280;46115;44.484;11.314;2023-08-06T09:32:45;99285.81;;;31.94;33.72
60258;BME280;46115;44.484;11.314;2023-08-06T09:36:50;99289.75;;;31.87;34.32
60258;BME280;46115;44.484;11.314;2023-08-06T09:40:52;99290.47;;;31.82;35.15
60258;BME280;46115;44.484;11.314;2023-08-06T09:45:05;99288.63;;;31.59;36.47
60258;BME280;46115;44.484;11.314;2023-08-06T09:49:08;99282.88;;;31.84;35.31
60258;BME280;46115;44.484;11.314;2023-08-06T09:53:11;99277.06;;;31.69;37.30
60258;BME280;46115;44.484;11.314;2023-08-06T09:57:14;99272.03;;;31.26;36.37
60258;BME280;46115;44.484;11.314;2023-08-06T10:01:19;99268.56;;;31.30;35.42
60258;BME280;46115;44.484;11.314;2023-08-06T10:05:23;99262.38;;;31.00;35.60
60258;BME280;46115;44.484;11.314;2023-08-06T10:09:26;99253.56;;;30.63;36.99
60258;BME280;46115;44.484;11.314;2023-08-06T10:13:30;99252.28;;;31.00;37.14
60258;BME280;46115;44.484;11.314;2023-08-06T10:17:35;99251.09;;;31.08;37.72
60258;BME280;46115;44.484;11.314;2023-08-06T10:21:39;99252.28;;;31.12;37.85
60258;BME280;46115;44.484;11.314;2023-08-06T10:25:42;99243.88;;;30.90;38.58
60258;BME280;46115;44.484;11.314;2023-08-06T10:29:44;99244.97;;;30.18;39.38
60258;BME280;46115;44.484;11.314;2023-08-06T10:33:48;99249.34;;;30.49;39.65
60258;BME280;46115;44.484;11.314;2023-08-06T10:37:51;99248.09;;;30.63;39.32
60258;BME280;46115;44.484;11.314;2023-08-06T10:41:53;99246.31;;;30.27;39.42
60258;BME280;46115;44.484;11.314;2023-08-06T10:45:57;99251.56;;;30.40;39.09
60258;BME280;46115;44.484;11.314;2023-08-06T10:50:01;99254.41;;;30.03;40.86
60258;BME280;46115;44.484;11.314;2023-08-06T10:54:04;99252.06;;;29.70;39.24
60258;BME280;46115;44.484;11.314;2023-08-06T10:58:07;99238.06;;;29.85;39.59
60258;BME280;46115;44.484;11.314;2023-08-06T11:02:09;99235.41;;;29.97;40.25
60258;BME280;46115;44.484;11.314;2023-08-06T11:06:17;99236.09;;;29.92;40.95
60258;BME280;46115;44.484;11.314;2023-08-06T11:10:19;99237.72;;;29.63;40.23
60258;BME280;46115;44.484;11.314;2023-08-06T11:14:22;99235.31;;;29.55;39.15
60258;BME280;46115;44.484;11.314;2023-08-06T11:18:24;99238.91;;;29.67;38.61
60258;BME280;46115;44.484;11.314;2023-08-06T11:22:28;99231.63;;;29.79;36.96
60258;BME280;46115;44.484;11.314;2023-08-06T11:26:31;99225.44;;;29.36;37.65
60258;BME280;46115;44.484;11.314;2023-08-06T11:30:33;99233.09;;;29.45;37.41
60258;BME280;46115;44.484;11.314;2023-08-06T11:34:36;99227.59;;;29.09;35.05
60258;BME280;46115;44.484;11.314;2023-08-06T11:38:40;99225.25;;;29.12;35.43
60258;BME280;46115;44.484;11.314;2023-08-06T11:42:43;99223.19;;;29.14;35.86
60258;BME280;46115;44.484;11.314;2023-08-06T11:46:52;99216.00;;;29.20;35.30
60258;BME280;46115;44.484;11.314;2023-08-06T11:50:56;99217.97;;;29.31;36.06
60258;BME280;46115;44.484;11.314;2023-08-06T11:55:02;99210.84;;;29.30;36.52
60258;BME280;46115;44.484;11.314;2023-08-06T11:59:08;99208.88;;;29.19;35.82
60258;BME280;46115;44.484;11.314;2023-08-06T12:03:11;99211.25;;;29.15;34.37
60258;BME280;46115;44.484;11.314;2023-08-06T12:07:13;99215.09;;;29.26;33.80
60258;BME280;46115;44.484;11.314;2023-08-06T12:11:21;99189.38;;;29.22;31.69
60258;BME280;46115;44.484;11.314;2023-08-06T12:15:24;99204.25;;;29.01;33.00
60258;BME280;46115;44.484;11.314;2023-08-06T12:19:27;99192.22;;;28.91;32.39
60258;BME280;46115;44.484;11.314;2023-08-06T12:23:31;99191.41;;;29.08;31.35
60258;BME280;46115;44.484;11.314;2023-08-06T12:27:35;99194.13;;;29.08;31.14
60258;BME280;46115;44.484;11.314;2023-08-06T12:31:38;99199.28;;;29.16;29.07
60258;BME280;46115;44.484;11.314;2023-08-06T12:35:42;99199.53;;;29.15;30.05
60258;BME280;46115;44.484;11.314;2023-08-06T12:39:46;99192.72;;;29.24;30.48
60258;BME280;46115;44.484;11.314;2023-08-06T12:43:50;99194.13;;;29.08;30.43
60258;BME280;46115;44.484;11.314;2023-08-06T12:47:52;99200.28;;;29.22;29.32
60258;BME280;46115;44.484;11.314;2023-08-06T12:51:55;99196.38;;;29.11;29.31
60258;BME280;46115;44.484;11.314;2023-08-06T12:56:00;99194.50;;;29.12;29.72
60258;BME280;46115;44.484;11.314;2023-08-06T13:00:08;99196.25;;;29.25;29.37
60258;BME280;46115;44.484;11.314;2023-08-06T13:04:11;99187.47;;;29.04;29.43
60258;BME280;46115;44.484;11.314;2023-08-06T13:08:13;99205.47;;;29.05;30.99
60258;BME280;46115;44.484;11.314;2023-08-06T13:12:16;99191.47;;;29.02;30.18
60258;BME280;46115;44.484;11.314;2023-08-06T13:16:21;99189.06;;;28.94;28.75
60258;BME280;46115;44.484;11.314;2023-08-06T13:20:24;99182.09;;;28.98;29.52
60258;BME280;46115;44.484;11.314;2023-08-06T13:24:26;99190.88;;;29.00;29.27
60258;BME280;46115;44.484;11.314;2023-08-06T13:28:29;99185.13;;;29.08;28.67
60258;BME280;46115;44.484;11.314;2023-08-06T13:32:33;99180.53;;;28.90;28.84
60258;BME280;46115;44.484;11.314;2023-08-06T13:36:40;99180.38;;;29.03;29.03
60258;BME280;46115;44.484;11.314;2023-08-06T13:40:43;99173.28;;;29.02;28.54
60258;BME280;46115;44.484;11.314;2023-08-06T13:44:47;99175.84;;;28.97;28.87
60258;BME280;46115;44.484;11.314;2023-08-06T13:48:51;99170.47;;;28.91;28.10
60258;BME280;46115;44.484;11.314;2023-08-06T13:52:53;99176.38;;;29.06;27.32
60258;BME280;46115;44.484;11.314;2023-08-06T13:56:56;99176.38;;;29.06;28.25
60258;BME280;46115;44.484;11.314;2023-08-06T14:00:59;99182.09;;;28.98;27.43
60258;BME280;46115;44.484;11.314;2023-08-06T14:05:03;99183.09;;;29.03;26.90
60258;BME280;46115;44.484;11.314;2023-08-06T14:09:06;99180.81;;;29.00;27.77
60258;BME280;46115;44.484;11.314;2023-08-06T14:13:09;99171.69;;;28.95;27.22
60258;BME280;46115;44.484;11.314;2023-08-06T14:17:11;99183.31;;;28.77;28.04
60258;BME280;46115;44.484;11.314;2023-08-06T14:21:15;99184.00;;;28.97;27.75
60258;BME280;46115;44.484;11.314;2023-08-06T14:25:18;99177.41;;;28.86;27.82
60258;BME280;46115;44.484;11.314;2023-08-06T14:29:20;99187.94;;;29.01;28.29
60258;BME280;46115;44.484;11.314;2023-08-06T14:33:23;99181.50;;;28.96;28.08
60258;BME280;46115;44.484;11.314;2023-08-06T14:37:26;99189.75;;;28.89;28.64
60258;BME280;46115;44.484;11.314;2023-08-06T14:41:29;99170.63;;;28.96;28.51
60258;BME280;46115;44.484;11.314;2023-08-06T14:45:31;99178.09;;;28.75;27.30
60258;BME280;46115;44.484;11.314;2023-08-06T14:49:34;99173.41;;;28.89;28.50
60258;BME280;46115;44.484;11.314;2023-08-06T14:53:39;99172.75;;;28.94;29.83
60258;BME280;46115;44.484;11.314;2023-08-06T14:57:41;99174.31;;;29.01;29.24
60258;BME280;46115;44.484;11.314;2023-08-06T15:01:44;99177.34;;;28.93;29.09
60258;BME280;46115;44.484;11.314;2023-08-06T15:05:47;99178.72;;;29.02;28.52
60258;BME280;46115;44.484;11.314;2023-08-06T15:09:51;99180.22;;;28.98;27.31
60258;BME280;46115;44.484;11.314;2023-08-06T15:13:54;99179.38;;;28.98;27.86
60258;BME280;46115;44.484;11.314;2023-08-06T15:17:57;99175.31;;;28.88;27.70
60258;BME280;46115;44.484;11.314;2023-08-06T15:21:59;99176.75;;;29.09;26.28
60258;BME280;46115;44.484;11.314;2023-08-06T15:26:03;99182.50;;;29.01;26.46
60258;BME280;46115;44.484;11.314;2023-08-06T15:30:07;99191.94;;;28.99;28.21
60258;BME280;46115;44.484;11.314;2023-08-06T15:34:09;99180.81;;;28.75;27.33
60258;BME280;46115;44.484;11.314;2023-08-06T15:38:12;99182.84;;;28.86;29.42
60258;BME280;46115;44.484;11.314;2023-08-06T15:42:16;99187.38;;;28.68;29.26
60258;BME280;46115;44.484;11.314;2023-08-06T15:46:18;99194.41;;;28.75;28.28
60258;BME280;46115;44.484;11.314;2023-08-06T15:50:21;99193.72;;;28.62;26.68
60258;BME280;46115;44.484;11.314;2023-08-06T15:54:23;99192.91;;;28.79;26.23
60258;BME280;46115;44.484;11.314;2023-08-06T15:58:27;99209.81;;;28.63;26.70
60258;BME280;46115;44.484;11.314;2023-08-06T16:02:29;99208.38;;;28.61;24.54
60258;BME280;46115;44.484;11.314;2023-08-06T16:06:32;99216.50;;;28.36;23.75
60258;BME280;46115;44.484;11.314;2023-08-06T16:10:34;99232.13;;;28.47;24.10
60258;BME280;46115;44.484;11.314;2023-08-06T16:14:38;99231.91;;;28.48;22.51
60258;BME280;46115;44.484;11.314;2023-08-06T16:18:42;99224.28;;;28.57;22.38
60258;BME280;46115;44.484;11.314;2023-08-06T16:22:45;99230.81;;;28.18;23.86
60258;BME280;46115;44.484;11.314;2023-08-06T16:26:47;99232.25;;;28.27;23.15
60258;BME280;46115;44.484;11.314;2023-08-06T16:30:51;99242.69;;;28.30;24.38
60258;BME280;46115;44.484;11.314;2023-08-06T16:34:55;99246.28;;;28.24;24.79
60258;BME280;46115;44.484;11.314;2023-08-06T16:38:58;99249.81;;;28.24;25.31
60258;BME280;46115;44.484;11.314;2023-08-06T16:43:00;99236.06;;;28.13;25.50
60258;BME280;46115;44.484;11.314;2023-08-06T16:47:05;99242.06;;;28.21;24.84
60258;BME280;46115;44.484;11.314;2023-08-06T16:51:07;99249.72;;;28.38;23.84
60258;BME280;46115;44.484;11.314;2023-08-06T16:55:11;99253.75;;;28.29;24.71
60258;BME280;46115;44.484;11.314;2023-08-06T16:59:15;99260.34;;;28.01;26.37
60258;BME280;46115;44.484;11.314;2023-08-06T17:03:19;99268.78;;;28.31;24.93
60258;BME280;46115;44.484;11.314;2023-08-06T17:07:22;99266.13;;;28.18;26.04
60258;BME280;46115;44.484;11.314;2023-08-06T17:11:24;99273.88;;;28.14;25.22
60258;BME280;46115;44.484;11.314;2023-08-06T17:15:26;99269.28;;;28.15;25.04
60258;BME280;46115;44.484;11.314;2023-08-06T17:19:30;99277.88;;;28.05;25.64
60258;BME280;46115;44.484;11.314;2023-08-06T17:23:33;99286.28;;;27.97;25.94
60258;BME280;46115;44.484;11.314;2023-08-06T17:27:35;99278.03;;;27.72;26.31
60258;BME280;46115;44.484;11.314;2023-08-06T17:31:38;99278.88;;;27.79;26.56
60258;BME280;46115;44.484;11.314;2023-08-06T17:35:43;99288.94;;;27.52;26.80
60258;BME280;46115;44.484;11.314;2023-08-06T17:39:45;99276.34;;;27.84;25.82
60258;BME280;46115;44.484;11.314;2023-08-06T17:43:48;99302.50;;;27.52;27.10
60258;BME280;46115;44.484;11.314;2023-08-06T17:47:50;99302.31;;;27.41;26.88
60258;BME280;46115;44.484;11.314;2023-08-06T17:51:54;99303.53;;;27.58;27.18
60258;BME280;46115;44.484;11.314;2023-08-06T17:55:57;99315.47;;;27.30;28.09
60258;BME280;46115;44.484;11.314;2023-08-06T18:00:02;99312.16;;;27.02;29.50
60258;BME280;46115;44.484;11.314;2023-08-06T18:04:12;99315.44;;;26.51;30.62
60258;BME280;46115;44.484;11.314;2023-08-06T18:08:16;99318.47;;;26.28;32.46
60258;BME280;46115;44.484;11.314;2023-08-06T18:12:18;99319.25;;;26.09;32.71
60258;BME280;46115;44.484;11.314;2023-08-06T18:16:21;99324.97;;;25.79;33.30
60258;BME280;46115;44.484;11.314;2023-08-06T18:20:23;99318.94;;;25.84;34.04
60258;BME280;46115;44.484;11.314;2023-08-06T18:24:27;99327.75;;;25.65;34.58
60258;BME280;46115;44.484;11.314;2023-08-06T18:28:30;99325.56;;;25.47;35.61
60258;BME280;46115;44.484;11.314;2023-08-06T18:32:32;99325.28;;;25.07;36.49
60258;BME280;46115;44.484;11.314;2023-08-06T18:36:35;99325.53;;;24.91;34.89
60258;BME280;46115;44.484;11.314;2023-08-06T18:40:38;99335.66;;;24.82;36.48
60258;BME280;46115;44.484;11.314;2023-08-06T18:44:41;99335.84;;;24.81;34.98
60258;BME280;46115;44.484;11.314;2023-08-06T18:48:43;99337.75;;;24.87;33.89
60258;BME280;46115;44.484;11.314;2023-08-06T18:52:46;99346.19;;;24.77;34.02
60258;BME280;46115;44.484;11.314;2023-08-06T18:56:52;99340.41;;;24.80;34.90
60258;BME280;46115;44.484;11.314;2023-08-06T19:00:56;99354.25;;;24.71;35.03
60258;BME280;46115;44.484;11.314;2023-08-06T19:04:59;99362.41;;;24.77;35.09
60258;BME280;46115;44.484;11.314;2023-08-06T19:09:03;99363.66;;;24.75;34.92
60258;BME280;46115;44.484;11.314;2023-08-06T19:13:08;99373.28;;;24.12;36.29
60258;BME280;46115;44.484;11.314;2023-08-06T19:17:11;99375.97;;;24.12;36.41
60258;BME280;46115;44.484;11.314;2023-08-06T22:06:08;99506.28;;;22.37;63.12
60258;BME280;46115;44.484;11.314;2023-08-06T22:10:11;99515.19;;;22.38;62.67
60258;BME280;46115;44.484;11.314;2023-08-06T22:14:14;99513.78;;;22.50;62.15
60258;BME280;46115;44.484;11.314;2023-08-06T22:18:17;99525.59;;;22.80;61.56
60258;BME280;46115;44.484;11.314;2023-08-06T22:22:21;99516.34;;;22.44;61.32
60258;BME280;46115;44.484;11.314;2023-08-06T22:26:24;99512.19;;;22.33;60.70
60258;BME280;46115;44.484;11.314;2023-08-06T22:30:26;99523.66;;;22.27;59.24
60258;BME280;46115;44.484;11.314;2023-08-06T22:34:29;99538.31;;;22.63;56.41
60258;BME280;46115;44.484;11.314;2023-08-06T22:38:33;99538.75;;;22.75;54.71
60258;BME280;46115;44.484;11.314;2023-08-06T22:42:35;99543.13;;;22.76;52.61
60258;BME280;46115;44.484;11.314;2023-08-06T22:46:39;99541.28;;;22.77;51.26
60258;BME280;46115;44.484;11.314;2023-08-06T22:50:41;99555.50;;;22.54;53.98
60258;BME280;46115;44.484;11.314;2023-08-06T22:54:45;99558.47;;;22.76;52.34
60258;BME280;46115;44.484;11.314;2023-08-06T22:58:48;99557.88;;;22.49;52.69
60258;BME280;46115;44.484;11.314;2023-08-06T23:02:51;99560.25;;;22.44;53.62
60258;BME280;46115;44.484;11.314;2023-08-06T23:06:53;99567.00;;;22.40;55.05
60258;BME280;46115;44.484;11.314;2023-08-06T23:10:57;99592.13;;;22.24;56.94
60258;BME280;46115;44.484;11.314;2023-08-06T23:15:02;99593.97;;;21.91;59.54
60258;BME280;46115;44.484;11.314;2023-08-06T23:19:04;99598.50;;;21.66;61.33
60258;BME280;46115;44.484;11.314;2023-08-06T23:23:07;99610.44;;;22.37;59.45
60258;BME280;46115;44.484;11.314;2023-08-06T23:27:11;99611.16;;;22.06;61.69
60258;BME280;46115;44.484;11.314;2023-08-06T23:31:13;99607.53;;;21.25;65.86
60258;BME280;46115;44.484;11.314;2023-08-06T23:35:16;99612.72;;;21.26;67.37
60258;BME280;46115;44.484;11.314;2023-08-06T23:39:18;99606.97;;;21.21;68.15
60258;BME280;46115;44.484;11.314;2023-08-06T23:43:22;99610.06;;;20.92;70.27
60258;BME280;46115;44.484;11.314;2023-08-06T23:47:25;99608.25;;;21.09;71.05
60258;BME280;46115;44.484;11.314;2023-08-06T23:51:29;99613.31;;;21.12;71.38
60258;BME280;46115;44.484;11.314;2023-08-06T23:55:32;99625.78;;;21.21;71.05
60258;BME280;46115;44.484;11.314;2023-08-06T23:59:35;99627.44;;;20.80;73.60
